• Join FlightAware (Why Join?)
  • Login
  • US Flag 
04:04AM EDT


 

Airport Tracker/Info


-or-


 

Live Flight TrackerFlight Track Log ✈ RLI811 ✈ 01-Jul-2013 ✈ KHYA - KHPN

Flight Track Log - Related Links

Times and Time Zones

All times are in EDT time to prevent confusion due to time zone crossing. See the RLI811 flight status page for this flight to view local times or setup timezone preferences in your user account.

Time Position Orientation Groundspeed Altitude Reporting Facility
EDT Latitude Longitude Course Direction KTS MPH feet Rate Location/Type
06:48AM 41.6636 -70.4394 260° West 137 158 3,900  Level Boston Center
06:49AM 41.6500 -70.4925 251° West 135 155 4,900 840 Climbing Boston Center
06:50AM 41.6820 -70.6223 280° West  Level FlightAware Approximate
06:50AM 41.6425 -70.5400 258° West 135 155 5,700  Level Boston Center
06:51AM 41.6834 -70.6817 270° West  Level FlightAware Approximate
06:51AM 41.6331 -70.5958 257° West 135 155 6,500  Level Boston Center
06:52AM 41.6833 -70.7427 270° West  Level FlightAware Approximate
06:52AM 41.6236 -70.6544 258° West 155 178 6,500  Level Boston Center
06:53AM 41.6161 -70.7158 261° West 165 190 6,500  Level Boston Center
06:54AM 41.6025 -70.7772 254° West 168 193 6,500  Level Boston Center
06:55AM 41.5969 -70.8217 261° West 168 193 6,500  Level Boston Center
06:56AM 41.5872 -70.8831 258° West 168 193 6,500  Level Boston Center
06:57AM 41.5775 -70.9333 256° West 168 193 6,500  Level Boston Center
06:58AM 41.5683 -71.0194 262° West 168 193 6,500  Level Boston Center
06:59AM 41.5544 -71.0808 253° West 168 193 6,500  Level Boston Center
07:00AM 41.5486 -71.1225 259° West 167 192 6,500  Level Boston Center
07:01AM 41.5411 -71.1808 260° West 167 192 6,500  Level Boston Center
07:02AM 41.5292 -71.2478 257° West 167 192 6,500  Level Boston Center
07:03AM 41.5194 -71.3172 259° West 170 196 6,500  Level Boston Center
07:04AM 41.5075 -71.3783 255° West 170 196 6,500  Level Boston Center
07:05AM 41.4978 -71.4450 259° West 170 196 6,500  Level Boston Center
07:06AM 41.4942 -71.5089 266° West 171 197 6,500  Level Boston Center
07:07AM 41.4967 -71.5725 273° West 174 200 6,500  Level Boston Center
07:08AM 41.4908 -71.6364 263° West 171 197 6,500  Level Boston Center
07:09AM 41.4872 -71.6975 266° West 171 197 6,500  Level Boston Center
07:10AM 41.4814 -71.7556 262° West 172 198 6,500  Level Boston Center
07:11AM 41.4797 -71.8167 268° West 171 197 6,500  Level Boston Center
07:12AM 41.4675 -71.8833 256° West 169 194 6,500  Level Boston Center
07:13AM 41.4594 -71.9469 260° West 169 194 6,500  Level Boston Center
07:14AM 41.4514 -72.0025 259° West 171 197 6,500  Level Boston Center
07:15AM 41.4411 -72.0664 258° West 169 194 6,500  Level Boston Center
07:16AM 41.4267 -72.1328 254° West 169 194 6,500  Level Boston Center
07:17AM 41.4122 -72.1911 252° West 172 198 6,500  Level Boston Center
07:18AM 41.4019 -72.2547 258° West 173 199 6,500 -60 Level Boston Center
07:20AM 41.3833 -72.3500 255° West 169 194 6,400 -60 Descending New York TRACON
07:21AM 41.3667 -72.4500 258° West 172 198 6,300 -240 Descending New York TRACON
07:22AM 41.3667 -72.5167 270° West 185 213 5,800 -480 Descending New York TRACON
07:23AM 41.3500 -72.5833 252° West 185 213 5,400 -420 Descending New York TRACON
07:24AM 41.3500 -72.6500 270° West 189 217 5,100 -360 Descending New York TRACON
07:25AM 41.3333 -72.7167 252° West 180 207 4,800 -420 Descending New York TRACON
07:26AM 41.3167 -72.7667 246° West 184 212 4,300 -480 Descending New York TRACON
07:27AM 41.3167 -72.8333 270° West 182 209 3,900 -240 Descending New York TRACON
07:28AM 41.3000 -72.8833 246° West 176 203 3,900  Level New York TRACON
07:29AM 41.3000 -72.9500 270° West 169 194 3,900  Level New York TRACON
07:30AM 41.2667 -72.9833 217° Southwest 174 200 3,900  Level New York TRACON
07:31AM 41.2167 -72.9833 180° South 171 197 3,900  Level New York TRACON
07:32AM 41.1833 -72.9667 159° South 164 189 3,900  Level New York TRACON
07:33AM 41.1500 -72.9833 201° Southwest 183 211 3,900  Level New York TRACON
07:34AM 41.1667 -73.0500 288° West 171 197 3,900  Level New York TRACON
07:35AM 41.1667 -73.1167 270° West 171 197 3,900  Level New York TRACON
07:36AM 41.1667 -73.1667 270° West 169 194 3,900  Level New York TRACON
07:37AM 41.1667 -73.2333 270° West 177 204 3,900  Level New York TRACON
07:38AM 41.1667 -73.3000 270° West 177 204 3,900  Level New York TRACON
07:39AM 41.1833 -73.3667 288° West 176 203 3,900 -60 Level New York TRACON
07:40AM 41.1833 -73.4333 270° West 176 203 3,800 -300 Descending New York TRACON
07:41AM 41.2000 -73.4833 294° West 214 246 3,300 -480 Descending New York TRACON
07:42AM 41.2667 -73.4833 360° North 209 241 2,900 -240 Descending New York TRACON
07:43AM 41.3167 -73.5000 346° North 209 241 2,900  Level New York TRACON
07:44AM 41.3167 -73.5667 270° West 176 203 2,900  Level New York TRACON
07:45AM 41.3167 -73.6333 270° West 172 198 2,900  Level New York TRACON
07:46AM 41.3167 -73.7000 270° West 175 201 2,900  Level New York TRACON
07:47AM 41.3000 -73.7500 246° West 170 196 2,900 -240 Level New York TRACON
07:48AM 41.2833 -73.8000 246° West 169 194 2,500 -480 Descending New York TRACON
07:49AM 41.2500 -73.8500 228° Southwest 173 199 2,000 -300 Descending New York TRACON
07:50AM 41.2167 -73.8167 143° Southeast 159 183 1,900 -60 Descending New York TRACON
07:51AM 41.1833 -73.7833 143° Southeast 141 162 1,900  Level New York TRACON
07:52AM 41.1500 -73.7667 159° South 132 152 1,900 -360 Level New York TRACON
07:53AM 41.1167 -73.7500 159° South 104 120 1,200 -600 Descending New York TRACON
07:54AM 41.1000 -73.7333 143° Southeast 100 115 800 -420 Descending New York TRACON